createdAt,value
2023-06-15T00:00:16.551Z,16.86
2023-06-15T00:01:48.297Z,16.82
2023-06-15T00:03:20.161Z,16.84
2023-06-15T00:04:52.250Z,16.83
2023-06-15T00:06:25.760Z,16.67
2023-06-15T00:07:58.014Z,16.62
2023-06-15T00:09:29.641Z,16.91
2023-06-15T00:11:01.338Z,17.06
2023-06-15T00:12:33.486Z,16.87
2023-06-15T00:14:06.652Z,16.92
2023-06-15T00:15:40.342Z,16.73
2023-06-15T00:17:13.073Z,16.92
2023-06-15T00:18:48.821Z,16.80
2023-06-15T00:20:22.593Z,16.89
2023-06-15T00:21:55.773Z,16.72
2023-06-15T00:23:28.104Z,16.96
2023-06-15T00:25:00.137Z,17.11
2023-06-15T00:26:31.779Z,17.04
2023-06-15T00:28:03.561Z,16.80
2023-06-15T00:29:35.179Z,16.84
2023-06-15T00:31:07.007Z,16.93
2023-06-15T00:32:39.058Z,16.89
2023-06-15T00:34:11.356Z,16.82
2023-06-15T00:35:43.006Z,16.93
2023-06-15T00:37:16.092Z,16.52
2023-06-15T00:38:47.714Z,16.41
2023-06-15T00:40:19.349Z,16.52
2023-06-15T00:41:50.964Z,16.28
2023-06-15T00:43:22.704Z,16.15
2023-06-15T00:44:54.367Z,16.21
2023-06-15T00:46:26.162Z,15.78
2023-06-15T00:47:57.803Z,15.99
2023-06-15T00:49:29.530Z,16.32
2023-06-15T00:51:01.239Z,16.16
2023-06-15T00:52:34.229Z,16.34
2023-06-15T00:54:05.978Z,16.44
2023-06-15T00:55:37.656Z,16.34
2023-06-15T00:57:12.007Z,16.38
2023-06-15T00:58:44.025Z,16.48
2023-06-15T01:00:17.134Z,16.31
2023-06-15T01:01:56.093Z,16.03
2023-06-15T01:03:28.073Z,15.74
2023-06-15T01:04:59.855Z,16.11
2023-06-15T01:06:32.964Z,16.23
2023-06-15T01:08:06.929Z,16.05
2023-06-15T01:09:40.183Z,16.18
2023-06-15T01:11:11.791Z,16.31
2023-06-15T01:12:45.628Z,16.05
2023-06-15T01:14:17.349Z,16.17
2023-06-15T01:15:49.474Z,16.21
2023-06-15T01:17:24.840Z,16.29
2023-06-15T01:19:00.252Z,16.13
2023-06-15T01:20:33.777Z,16.01
2023-06-15T01:22:09.279Z,16.03
2023-06-15T01:23:45.205Z,15.63
2023-06-15T01:25:28.172Z,15.84
2023-06-15T01:27:05.588Z,15.70
2023-06-15T01:28:42.058Z,15.63
2023-06-15T01:30:14.206Z,15.96
2023-06-15T01:31:45.920Z,15.81
2023-06-15T01:33:17.604Z,15.73
2023-06-15T01:34:49.863Z,15.97
2023-06-15T01:36:21.465Z,16.05
2023-06-15T01:37:53.095Z,16.17
2023-06-15T01:39:24.777Z,16.12
2023-06-15T01:40:56.839Z,16.12
2023-06-15T01:42:29.866Z,16.03
2023-06-15T01:44:01.665Z,15.66
2023-06-15T01:45:33.324Z,15.54
2023-06-15T01:47:06.206Z,15.67
2023-06-15T01:48:37.818Z,15.84
2023-06-15T01:50:11.072Z,15.91
2023-06-15T01:51:42.774Z,16.00
2023-06-15T01:53:14.514Z,15.82
2023-06-15T01:54:46.411Z,16.00
2023-06-15T01:56:18.155Z,15.89
2023-06-15T01:57:51.181Z,15.91
2023-06-15T01:59:22.804Z,15.96
2023-06-15T02:00:54.460Z,15.94
2023-06-15T02:02:26.215Z,15.97
2023-06-15T02:03:57.840Z,15.78
2023-06-15T02:05:30.167Z,15.61
2023-06-15T02:07:03.353Z,15.66
2023-06-15T02:08:37.362Z,15.36
2023-06-15T02:10:09.872Z,15.61
2023-06-15T02:11:43.153Z,15.64
2023-06-15T02:13:16.404Z,15.69
2023-06-15T02:14:51.103Z,15.62
2023-06-15T02:16:23.359Z,15.33
2023-06-15T02:18:02.696Z,15.23
2023-06-15T02:19:34.371Z,15.21
2023-06-15T02:21:06.154Z,15.45
2023-06-15T02:22:37.953Z,15.48
2023-06-15T02:24:09.614Z,15.38
2023-06-15T02:25:41.307Z,15.38
2023-06-15T02:27:13.059Z,15.26
2023-06-15T02:28:46.177Z,15.43
2023-06-15T02:30:21.255Z,15.57
2023-06-15T02:31:52.892Z,15.45
2023-06-15T02:33:26.772Z,15.46
2023-06-15T02:34:59.789Z,15.47
2023-06-15T02:36:31.744Z,15.43
2023-06-15T02:38:06.477Z,15.41
2023-06-15T02:39:38.074Z,15.45
2023-06-15T02:41:09.723Z,15.19
2023-06-15T02:42:41.615Z,15.47
2023-06-15T02:44:16.138Z,15.32
2023-06-15T02:45:47.888Z,15.05
2023-06-15T02:47:19.521Z,15.26
2023-06-15T02:48:52.693Z,15.24
2023-06-15T02:50:24.690Z,15.38
2023-06-15T02:51:56.333Z,15.10
2023-06-15T02:53:27.995Z,15.19
2023-06-15T02:54:59.691Z,15.08
2023-06-15T02:56:31.329Z,15.17
2023-06-15T02:58:02.953Z,15.27
2023-06-15T02:59:35.900Z,15.30
2023-06-15T03:01:08.285Z,15.09
2023-06-15T03:02:40.072Z,14.99
2023-06-15T03:04:15.704Z,14.76
2023-06-15T03:05:47.633Z,14.62
2023-06-15T03:07:21.893Z,14.76
2023-06-15T03:08:54.097Z,14.81
2023-06-15T03:10:25.979Z,14.46
2023-06-15T03:11:57.621Z,14.47
2023-06-15T03:13:32.805Z,14.87
2023-06-15T03:15:09.597Z,14.86
2023-06-15T03:16:42.128Z,14.90
2023-06-15T03:18:13.727Z,14.84
2023-06-15T03:19:45.501Z,15.01
2023-06-15T03:21:19.312Z,14.73
2023-06-15T03:22:51.052Z,14.62
2023-06-15T03:24:25.156Z,14.72
2023-06-15T03:25:57.303Z,14.95
2023-06-15T03:27:30.949Z,14.87
2023-06-15T03:29:04.097Z,14.67
2023-06-15T03:30:37.742Z,14.74
2023-06-15T03:32:09.647Z,14.78
2023-06-15T03:33:41.331Z,14.74
2023-06-15T03:35:13.619Z,14.45
2023-06-15T03:36:45.336Z,14.52
2023-06-15T03:38:17.257Z,14.42
2023-06-15T03:39:48.859Z,14.47
2023-06-15T03:41:20.450Z,14.35
2023-06-15T03:42:52.109Z,14.47
2023-06-15T03:44:23.788Z,14.48
2023-06-15T03:45:59.764Z,14.56
2023-06-15T03:47:33.203Z,14.49
2023-06-15T03:49:05.004Z,14.73
2023-06-15T03:50:36.644Z,14.78
2023-06-15T03:52:08.588Z,14.59
2023-06-15T03:53:42.554Z,14.55
2023-06-15T03:55:14.485Z,14.49
2023-06-15T03:56:46.533Z,14.46
2023-06-15T03:58:18.769Z,14.52
2023-06-15T03:59:50.478Z,14.60
2023-06-15T04:01:26.025Z,14.39
2023-06-15T04:02:58.163Z,14.56
2023-06-15T04:04:33.282Z,14.55
2023-06-15T04:06:05.486Z,14.70
2023-06-15T04:07:37.185Z,14.58
2023-06-15T04:09:09.195Z,14.54
2023-06-15T04:10:40.920Z,14.76
2023-06-15T04:12:12.525Z,14.58
2023-06-15T04:13:44.774Z,14.78
2023-06-15T04:15:16.873Z,14.80
2023-06-15T04:16:50.011Z,14.89
2023-06-15T04:18:21.831Z,14.95
2023-06-15T04:19:53.496Z,14.88
2023-06-15T04:21:25.101Z,14.88
2023-06-15T04:22:57.271Z,14.81
2023-06-15T04:24:29.070Z,14.88
2023-06-15T04:26:01.497Z,14.92
2023-06-15T04:27:35.246Z,14.84
2023-06-15T04:29:07.072Z,14.86
2023-06-15T04:30:45.837Z,14.93
2023-06-15T04:32:18.880Z,14.82
2023-06-15T04:33:50.575Z,14.87
2023-06-15T04:35:22.206Z,14.85
2023-06-15T04:36:54.098Z,15.07
2023-06-15T04:38:26.625Z,14.87
2023-06-15T04:40:00.793Z,14.77
2023-06-15T04:41:32.494Z,14.97
2023-06-15T04:43:04.597Z,14.97
2023-06-15T04:44:36.703Z,15.06
2023-06-15T04:46:08.300Z,14.94
2023-06-15T04:47:43.171Z,14.96
2023-06-15T04:49:14.935Z,14.78
2023-06-15T04:50:49.396Z,14.87
2023-06-15T04:52:21.100Z,14.94
2023-06-15T04:53:52.721Z,15.01
2023-06-15T04:55:24.382Z,14.98
2023-06-15T04:56:58.657Z,14.86
2023-06-15T04:58:30.363Z,14.97
2023-06-15T05:00:01.989Z,15.07
2023-06-15T05:01:33.778Z,15.13
2023-06-15T05:03:07.255Z,15.03
2023-06-15T05:04:39.048Z,15.15
2023-06-15T05:06:11.219Z,15.19
2023-06-15T05:07:42.842Z,15.27
2023-06-15T05:09:14.455Z,15.17
2023-06-15T05:10:47.126Z,15.09
2023-06-15T05:12:18.950Z,15.22
2023-06-15T05:13:50.832Z,15.36
2023-06-15T05:15:22.800Z,15.42
2023-06-15T05:16:54.920Z,15.25
2023-06-15T05:18:28.028Z,15.33
2023-06-15T05:19:59.674Z,15.21
2023-06-15T05:21:31.686Z,15.40
2023-06-15T05:23:03.450Z,15.43
2023-06-15T05:24:35.972Z,15.29
2023-06-15T05:26:20.817Z,15.37
2023-06-15T05:27:59.297Z,15.36
2023-06-15T05:29:31.681Z,15.46
2023-06-15T05:31:03.587Z,15.45
2023-06-15T05:32:38.766Z,15.43
2023-06-15T05:34:12.367Z,15.50
2023-06-15T05:35:43.993Z,15.53
2023-06-15T05:37:15.792Z,15.45
2023-06-15T05:38:47.758Z,15.38
2023-06-15T05:40:19.722Z,15.35
2023-06-15T05:41:51.431Z,15.33
2023-06-15T05:43:23.188Z,15.39
2023-06-15T05:44:55.057Z,15.50
2023-06-15T05:46:26.686Z,15.69
2023-06-15T05:47:58.358Z,15.79
2023-06-15T05:49:31.534Z,15.85
2023-06-15T05:51:03.257Z,15.82
2023-06-15T05:52:34.843Z,15.90
2023-06-15T05:54:06.499Z,15.96
2023-06-15T05:55:38.144Z,16.10
2023-06-15T05:57:11.125Z,16.08
2023-06-15T05:58:42.864Z,16.11
2023-06-15T06:00:16.102Z,16.06
2023-06-15T06:01:47.755Z,16.15
2023-06-15T06:03:19.436Z,16.14
2023-06-15T06:04:52.406Z,16.17
2023-06-15T06:06:24.080Z,16.34
2023-06-15T06:07:56.179Z,16.35
2023-06-15T06:09:27.991Z,16.44
2023-06-15T06:10:59.893Z,16.55
2023-06-15T06:12:31.631Z,16.62
2023-06-15T06:14:03.298Z,16.67
2023-06-15T06:15:35.271Z,16.71
2023-06-15T06:17:07.060Z,16.78
2023-06-15T06:18:38.791Z,16.71
2023-06-15T06:20:13.188Z,16.75
2023-06-15T06:21:44.813Z,16.48
2023-06-15T06:23:16.729Z,16.46
2023-06-15T06:24:48.364Z,16.78
2023-06-15T06:26:20.132Z,16.96
2023-06-15T06:27:51.723Z,16.81
2023-06-15T06:29:23.365Z,17.13
2023-06-15T06:30:55.128Z,17.23
2023-06-15T06:32:26.881Z,17.18
2023-06-15T06:33:58.528Z,17.10
2023-06-15T06:35:31.543Z,17.07
2023-06-15T06:37:03.598Z,17.12
2023-06-15T06:38:37.244Z,17.00
2023-06-15T06:40:13.429Z,16.78
2023-06-15T06:41:46.616Z,16.78
2023-06-15T06:43:18.303Z,16.78
2023-06-15T06:44:49.935Z,16.99
2023-06-15T06:46:23.385Z,17.05
2023-06-15T06:47:55.099Z,17.14
2023-06-15T06:49:26.926Z,16.85
2023-06-15T06:50:59.943Z,16.87
2023-06-15T06:52:31.543Z,17.17
2023-06-15T06:54:03.504Z,17.15
2023-06-15T06:55:35.643Z,17.16
2023-06-15T06:57:07.378Z,17.37
2023-06-15T06:58:39.299Z,17.55
2023-06-15T07:00:12.481Z,17.51
2023-06-15T07:01:44.605Z,17.61
2023-06-15T07:03:16.488Z,17.39
2023-06-15T07:04:48.305Z,17.51
2023-06-15T07:06:21.339Z,17.51
2023-06-15T07:07:53.046Z,17.56
2023-06-15T07:09:24.662Z,17.69
2023-06-15T07:10:56.439Z,17.74
2023-06-15T07:12:28.098Z,17.77
2023-06-15T07:13:59.694Z,17.73
2023-06-15T07:15:32.723Z,17.66
2023-06-15T07:17:05.174Z,17.83
2023-06-15T07:18:36.840Z,17.72
2023-06-15T07:20:08.838Z,17.71
2023-06-15T07:21:41.852Z,17.73
2023-06-15T07:23:13.500Z,18.09
2023-06-15T07:24:45.448Z,18.17
2023-06-15T07:26:17.272Z,18.27
2023-06-15T07:27:48.883Z,18.24
2023-06-15T07:29:20.571Z,18.25
2023-06-15T07:30:52.268Z,18.01
2023-06-15T07:32:23.936Z,18.13
2023-06-15T07:33:55.901Z,18.48
2023-06-15T07:35:27.558Z,18.46
2023-06-15T07:37:00.773Z,18.37
2023-06-15T07:38:32.466Z,18.56
2023-06-15T07:40:05.039Z,18.52
2023-06-15T07:41:36.768Z,18.51
2023-06-15T07:43:08.470Z,18.95
2023-06-15T07:44:40.209Z,18.94
2023-06-15T07:46:11.882Z,18.70
2023-06-15T07:47:43.642Z,18.92
2023-06-15T07:49:15.372Z,19.09
2023-06-15T07:50:47.826Z,18.85
2023-06-15T07:52:20.832Z,18.93
2023-06-15T07:53:52.458Z,19.16
2023-06-15T07:55:24.115Z,19.28
2023-06-15T07:56:56.426Z,19.09
2023-06-15T07:58:28.078Z,18.94
2023-06-15T08:00:00.037Z,19.26
2023-06-15T08:01:31.714Z,19.24
2023-06-15T08:03:03.686Z,19.23
2023-06-15T08:04:35.466Z,18.86
2023-06-15T08:06:07.086Z,18.40
2023-06-15T08:07:40.090Z,18.92
2023-06-15T08:09:13.049Z,18.41
2023-06-15T08:12:43.135Z,19.15
2023-06-15T08:14:14.735Z,19.01
2023-06-15T08:15:46.441Z,19.03
2023-06-15T08:17:18.135Z,19.37
2023-06-15T08:18:49.791Z,19.41
2023-06-15T08:20:22.439Z,19.62
2023-06-15T08:21:54.215Z,19.75
2023-06-15T08:23:27.190Z,19.62
2023-06-15T08:24:58.809Z,19.62
2023-06-15T08:26:31.597Z,19.55
2023-06-15T08:28:03.414Z,19.46
2023-06-15T08:29:35.056Z,19.49
2023-06-15T08:31:06.842Z,19.31
2023-06-15T08:32:38.479Z,19.82
2023-06-15T08:34:10.316Z,20.16
2023-06-15T08:35:42.085Z,20.25
2023-06-15T08:37:15.860Z,19.41
2023-06-15T08:38:48.893Z,19.90
2023-06-15T08:40:20.684Z,19.93
2023-06-15T08:41:52.677Z,20.38
2023-06-15T08:43:24.383Z,20.21
2023-06-15T08:44:56.232Z,19.76
2023-06-15T08:46:29.794Z,19.79
2023-06-15T08:48:01.542Z,19.87
2023-06-15T08:49:33.398Z,19.84
2023-06-15T08:51:05.318Z,20.33
2023-06-15T08:52:38.757Z,20.52
2023-06-15T08:54:11.776Z,20.39
2023-06-15T08:55:43.466Z,20.11
2023-06-15T08:57:15.172Z,20.20
2023-06-15T08:58:50.739Z,20.44
2023-06-15T09:00:22.790Z,20.95
2023-06-15T09:01:55.141Z,21.18
2023-06-15T09:03:26.865Z,21.25
2023-06-15T09:04:58.534Z,21.36
2023-06-15T09:06:30.286Z,20.72
2023-06-15T09:08:02.022Z,20.57
2023-06-15T09:09:35.379Z,20.60
2023-06-15T09:11:07.219Z,21.13
2023-06-15T09:12:42.277Z,21.60
2023-06-15T09:14:14.152Z,21.49
2023-06-15T09:15:51.748Z,21.23
2023-06-15T09:17:28.066Z,21.52
2023-06-15T09:18:59.761Z,21.17
2023-06-15T09:20:32.353Z,21.20
2023-06-15T09:22:04.442Z,21.17
2023-06-15T09:23:39.108Z,21.62
2023-06-15T09:25:17.477Z,21.32
2023-06-15T09:26:49.190Z,21.26
2023-06-15T09:28:21.417Z,21.00
2023-06-15T09:30:02.928Z,21.01
2023-06-15T09:31:35.692Z,20.75
2023-06-15T09:33:12.515Z,21.55
2023-06-15T09:34:56.951Z,21.49
2023-06-15T09:36:28.593Z,21.61
2023-06-15T09:38:00.408Z,21.65
2023-06-15T09:39:32.173Z,21.66
2023-06-15T09:41:05.387Z,21.52
2023-06-15T09:42:37.151Z,21.56
2023-06-15T09:44:09.553Z,22.02
2023-06-15T09:45:49.571Z,21.44
2023-06-15T09:47:21.281Z,21.50
2023-06-15T09:48:52.975Z,21.99
2023-06-15T09:50:28.636Z,21.58
2023-06-15T09:52:01.239Z,22.35
2023-06-15T09:53:33.016Z,22.60
2023-06-15T09:55:05.443Z,22.92
2023-06-15T09:56:38.506Z,23.35
2023-06-15T09:58:11.391Z,22.79
2023-06-15T09:59:43.089Z,22.88
2023-06-15T10:01:14.794Z,23.11
2023-06-15T10:02:46.746Z,23.05
2023-06-15T10:04:20.711Z,23.32
2023-06-15T10:05:55.416Z,22.80
2023-06-15T10:07:27.125Z,23.72
2023-06-15T10:09:00.926Z,23.39
2023-06-15T10:10:32.611Z,23.11
2023-06-15T10:12:07.691Z,22.09
2023-06-15T10:13:41.098Z,21.81
2023-06-15T10:15:13.749Z,21.61
2023-06-15T10:16:46.487Z,21.92
2023-06-15T10:18:18.275Z,22.71
2023-06-15T10:19:51.394Z,23.20
2023-06-15T10:21:28.031Z,22.52
2023-06-15T10:23:05.160Z,23.12
2023-06-15T10:24:36.962Z,23.06
2023-06-15T10:26:09.033Z,23.10
2023-06-15T10:27:42.096Z,23.44
2023-06-15T10:29:16.709Z,23.55
2023-06-15T10:30:51.624Z,24.21
2023-06-15T10:32:27.579Z,24.36
2023-06-15T10:34:02.837Z,24.41
2023-06-15T10:35:37.203Z,24.39
2023-06-15T10:37:15.020Z,24.28
2023-06-15T10:38:50.545Z,24.64
2023-06-15T10:40:25.924Z,24.68
2023-06-15T10:41:58.333Z,24.54
2023-06-15T10:43:31.387Z,23.89
2023-06-15T10:45:26.188Z,24.18
2023-06-15T10:47:06.783Z,23.89
2023-06-15T10:48:39.354Z,24.52
2023-06-15T10:50:15.692Z,24.30
2023-06-15T10:51:53.880Z,24.76
2023-06-15T10:53:26.403Z,24.60
2023-06-15T10:54:59.598Z,24.24
2023-06-15T10:56:31.251Z,23.19
2023-06-15T10:58:15.796Z,23.74
2023-06-15T10:59:49.706Z,23.35
2023-06-15T11:01:21.773Z,23.68
2023-06-15T11:02:55.944Z,23.70
2023-06-15T11:04:31.640Z,23.95
2023-06-15T11:06:04.582Z,24.69
2023-06-15T11:07:36.815Z,25.31
2023-06-15T11:09:13.123Z,25.21
2023-06-15T11:10:44.871Z,24.40
2023-06-15T11:12:44.077Z,25.15
2023-06-15T11:14:21.863Z,24.96
2023-06-15T11:16:15.875Z,25.31
2023-06-15T11:17:53.821Z,25.57
2023-06-15T11:19:26.021Z,25.89
2023-06-15T11:21:01.526Z,25.70
2023-06-15T11:22:33.224Z,24.91
2023-06-15T11:24:05.265Z,24.26
2023-06-15T11:25:37.602Z,24.82
2023-06-15T11:27:13.681Z,25.48
2023-06-15T11:28:46.524Z,26.02
2023-06-15T11:30:18.730Z,26.32
2023-06-15T11:31:52.082Z,25.67
2023-06-15T11:33:28.227Z,25.72
2023-06-15T11:35:01.682Z,25.13
2023-06-15T11:36:33.461Z,26.25
2023-06-15T11:38:06.800Z,25.80
2023-06-15T11:39:38.608Z,25.38
2023-06-15T11:41:11.825Z,25.34
2023-06-15T11:42:43.762Z,25.34
2023-06-15T11:44:15.737Z,25.49
2023-06-15T11:45:50.404Z,24.76
2023-06-15T11:47:23.586Z,24.28
2023-06-15T11:48:56.121Z,23.50
2023-06-15T11:50:29.562Z,23.64
2023-06-15T11:52:01.438Z,24.31
2023-06-15T11:53:34.429Z,25.31
2023-06-15T11:55:09.239Z,25.07
2023-06-15T11:56:44.846Z,25.47
2023-06-15T11:58:16.494Z,26.12
2023-06-15T11:59:52.007Z,25.38
2023-06-15T12:01:27.051Z,25.91
2023-06-15T12:03:00.079Z,26.78
2023-06-15T12:04:31.891Z,26.69
2023-06-15T12:06:03.758Z,25.94
2023-06-15T12:07:38.557Z,26.45
2023-06-15T12:09:10.740Z,26.31
2023-06-15T12:10:43.811Z,25.77
2023-06-15T12:12:29.180Z,25.64
2023-06-15T12:14:01.601Z,26.13
2023-06-15T12:15:33.312Z,25.74
2023-06-15T12:17:05.293Z,25.72
2023-06-15T12:18:38.262Z,25.76
2023-06-15T12:20:16.190Z,26.06
2023-06-15T12:21:49.746Z,25.67
2023-06-15T12:23:28.586Z,26.81
2023-06-15T12:25:03.258Z,26.66
2023-06-15T12:26:34.948Z,27.21
2023-06-15T12:28:13.548Z,26.40
2023-06-15T12:29:45.185Z,27.07
2023-06-15T12:31:17.083Z,25.98
2023-06-15T12:32:50.185Z,26.33
2023-06-15T12:34:25.223Z,25.42
2023-06-15T12:35:57.673Z,26.24
2023-06-15T12:37:42.461Z,25.99
2023-06-15T12:39:21.351Z,26.42
2023-06-15T12:40:53.660Z,25.92
2023-06-15T12:42:27.154Z,26.37
2023-06-15T12:43:58.821Z,26.44
2023-06-15T12:45:30.795Z,26.98
2023-06-15T12:47:04.630Z,27.25
2023-06-15T12:48:36.746Z,26.16
2023-06-15T12:50:10.807Z,27.05
2023-06-15T12:51:47.630Z,27.18
2023-06-15T12:53:19.376Z,26.75
2023-06-15T12:54:51.056Z,27.31
2023-06-15T12:56:22.727Z,26.90
2023-06-15T12:57:56.438Z,26.54
2023-06-15T12:59:28.143Z,26.29
2023-06-15T13:01:00.335Z,26.73
2023-06-15T13:02:33.788Z,26.53
2023-06-15T13:04:06.065Z,26.81
2023-06-15T13:05:39.766Z,26.77
2023-06-15T13:07:11.791Z,26.30
2023-06-15T13:08:44.076Z,26.56
2023-06-15T13:10:16.325Z,25.90
2023-06-15T13:11:48.938Z,25.86
2023-06-15T13:13:20.639Z,26.56
2023-06-15T13:14:52.312Z,26.07
2023-06-15T13:16:24.280Z,25.82
2023-06-15T13:17:56.045Z,26.77
2023-06-15T13:19:27.928Z,25.94
2023-06-15T13:21:01.515Z,26.34
2023-06-15T13:22:33.335Z,27.07
2023-06-15T13:24:05.482Z,26.59
2023-06-15T13:25:37.213Z,26.19
2023-06-15T13:27:09.298Z,26.22
2023-06-15T13:28:42.246Z,26.28
2023-06-15T13:30:14.544Z,26.82
2023-06-15T13:31:46.416Z,26.53
2023-06-15T13:33:18.568Z,26.23
2023-06-15T13:34:50.298Z,26.10
2023-06-15T13:36:23.358Z,26.36
2023-06-15T13:37:56.228Z,25.77
2023-06-15T13:39:27.864Z,26.87
2023-06-15T13:40:59.596Z,27.56
2023-06-15T13:42:31.458Z,26.86
2023-06-15T13:44:03.209Z,27.32
2023-06-15T13:45:34.957Z,26.20
2023-06-15T13:47:07.112Z,26.32
2023-06-15T13:48:38.728Z,26.90
2023-06-15T13:50:12.544Z,26.23
2023-06-15T13:51:45.520Z,25.18
2023-06-15T13:53:17.221Z,25.98
2023-06-15T13:54:48.942Z,27.02
2023-06-15T13:56:20.747Z,26.45
2023-06-15T13:57:52.410Z,26.06
2023-06-15T13:59:25.240Z,25.92
2023-06-15T14:00:57.406Z,25.54
2023-06-15T14:02:29.170Z,25.68
2023-06-15T14:04:01.024Z,26.73
2023-06-15T14:05:33.054Z,26.17
2023-06-15T14:07:06.896Z,26.63
2023-06-15T14:08:38.573Z,26.47
2023-06-15T14:10:11.192Z,26.43
2023-06-15T14:11:43.007Z,25.49
2023-06-15T14:13:16.999Z,25.56
2023-06-15T14:14:48.751Z,25.38
2023-06-15T14:16:21.132Z,24.72
2023-06-15T14:17:53.004Z,25.08
2023-06-15T14:19:25.243Z,24.97
2023-06-15T14:20:56.845Z,24.87
2023-06-15T14:22:31.508Z,24.94
2023-06-15T14:24:04.818Z,25.18
2023-06-15T14:25:36.694Z,25.49
2023-06-15T14:27:08.371Z,25.95
2023-06-15T14:28:40.033Z,25.69
2023-06-15T14:30:12.847Z,25.61
2023-06-15T14:31:47.557Z,25.50
2023-06-15T14:33:19.812Z,25.69
2023-06-15T14:34:51.510Z,25.87
2023-06-15T14:36:23.132Z,25.52
2023-06-15T14:37:56.327Z,25.68
2023-06-15T14:39:28.015Z,25.76
2023-06-15T14:40:59.650Z,25.30
2023-06-15T14:42:32.093Z,25.80
2023-06-15T14:44:05.186Z,25.10
2023-06-15T14:45:36.950Z,25.44
2023-06-15T14:47:08.841Z,25.44
2023-06-15T14:48:40.966Z,25.24
2023-06-15T14:50:16.085Z,25.79
2023-06-15T14:51:48.030Z,25.87
2023-06-15T14:53:21.139Z,25.82
2023-06-15T14:54:52.871Z,25.81
2023-06-15T14:56:26.871Z,26.18
2023-06-15T14:57:58.486Z,26.33
2023-06-15T14:59:30.174Z,25.78
2023-06-15T15:01:02.002Z,25.88
2023-06-15T15:02:33.720Z,26.04
2023-06-15T15:04:05.483Z,25.86
2023-06-15T15:05:37.845Z,25.70
2023-06-15T15:07:09.467Z,26.23
2023-06-15T15:08:42.446Z,25.96
2023-06-15T15:10:14.111Z,25.71
2023-06-15T15:11:45.795Z,25.90
2023-06-15T15:13:19.615Z,25.86
2023-06-15T15:14:53.185Z,25.64
2023-06-15T15:16:25.300Z,26.26
2023-06-15T15:17:57.119Z,25.76
2023-06-15T15:19:28.828Z,25.90
2023-06-15T15:21:01.099Z,25.94
2023-06-15T15:22:32.846Z,26.41
2023-06-15T15:24:06.570Z,26.26
2023-06-15T15:25:38.782Z,26.18
2023-06-15T15:27:10.490Z,26.37
2023-06-15T15:28:42.441Z,26.59
2023-06-15T15:30:14.188Z,26.70
2023-06-15T15:31:45.858Z,25.86
2023-06-15T15:33:17.713Z,25.97
2023-06-15T15:34:49.504Z,26.31
2023-06-15T15:36:21.214Z,26.29
2023-06-15T15:37:52.904Z,26.15
2023-06-15T15:39:26.056Z,25.97
2023-06-15T15:40:57.877Z,25.87
2023-06-15T15:42:29.798Z,25.84
2023-06-15T15:44:01.855Z,25.61
2023-06-15T15:45:33.645Z,26.17
2023-06-15T15:47:06.138Z,26.44
2023-06-15T15:48:37.856Z,26.47
2023-06-15T15:50:10.705Z,26.85
2023-06-15T15:51:42.378Z,26.67
2023-06-15T15:53:14.082Z,26.51
2023-06-15T15:54:48.850Z,26.61
2023-06-15T15:56:20.662Z,26.71
2023-06-15T15:57:52.320Z,26.19
2023-06-15T15:59:24.044Z,26.16
2023-06-15T16:00:55.751Z,26.09
2023-06-15T16:02:27.540Z,26.00
2023-06-15T16:03:59.487Z,26.03
2023-06-15T16:05:31.329Z,25.99
2023-06-15T16:07:03.077Z,26.20
2023-06-15T16:08:34.716Z,26.03
2023-06-15T16:10:08.662Z,25.69
2023-06-15T16:11:41.246Z,25.55
2023-06-15T16:13:12.999Z,25.91
2023-06-15T16:14:44.666Z,25.43
2023-06-15T16:16:28.165Z,25.19
2023-06-15T16:18:00.918Z,25.19
2023-06-15T16:19:32.655Z,25.16
2023-06-15T16:21:04.441Z,25.30
2023-06-15T16:22:36.659Z,25.68
2023-06-15T16:24:08.485Z,25.48
2023-06-15T16:25:41.657Z,24.92
2023-06-15T16:27:13.477Z,24.59
2023-06-15T16:28:45.448Z,24.86
2023-06-15T16:30:17.364Z,24.94
2023-06-15T16:31:49.178Z,24.97
2023-06-15T16:33:21.036Z,24.81
2023-06-15T16:34:54.614Z,24.69
2023-06-15T16:36:26.227Z,24.62
2023-06-15T16:37:57.949Z,24.39
2023-06-15T16:39:51.189Z,24.44
2023-06-15T16:41:24.222Z,24.91
2023-06-15T16:42:56.123Z,25.13
2023-06-15T16:44:27.771Z,25.59
2023-06-15T16:45:59.514Z,25.63
2023-06-15T16:47:33.924Z,25.41
2023-06-15T16:49:05.758Z,25.05
2023-06-15T16:50:37.497Z,25.26
2023-06-15T16:52:10.299Z,25.31
2023-06-15T16:53:42.016Z,25.22
2023-06-15T16:55:13.741Z,25.01
2023-06-15T16:56:46.899Z,24.80
2023-06-15T16:58:20.605Z,24.83
2023-06-15T16:59:53.567Z,24.57
2023-06-15T17:01:25.226Z,24.41
2023-06-15T17:02:57.129Z,24.61
2023-06-15T17:04:28.845Z,24.27
2023-06-15T17:06:00.494Z,24.37
2023-06-15T17:07:32.254Z,24.27
2023-06-15T17:09:04.234Z,24.09
2023-06-15T17:10:35.906Z,23.84
2023-06-15T17:12:09.935Z,24.01
2023-06-15T17:13:41.548Z,24.01
2023-06-15T17:15:13.195Z,23.83
2023-06-15T17:16:45.220Z,23.81
2023-06-15T17:18:17.001Z,24.13
2023-06-15T17:19:48.860Z,24.01
2023-06-15T17:21:24.415Z,24.21
2023-06-15T17:22:56.540Z,24.27
2023-06-15T17:24:28.468Z,24.11
2023-06-15T17:26:00.252Z,24.16
2023-06-15T17:27:33.270Z,24.00
2023-06-15T17:29:05.047Z,24.02
2023-06-15T17:30:37.050Z,23.85
2023-06-15T17:32:10.832Z,23.93
2023-06-15T17:33:43.596Z,23.66
2023-06-15T17:35:15.451Z,23.69
2023-06-15T17:36:47.436Z,23.53
2023-06-15T17:38:19.076Z,23.59
2023-06-15T17:39:51.176Z,23.65
2023-06-15T17:41:22.917Z,23.65
2023-06-15T17:42:55.932Z,23.66
2023-06-15T17:44:27.904Z,23.47
2023-06-15T17:45:59.641Z,23.31
2023-06-15T17:47:36.598Z,23.20
2023-06-15T17:49:08.326Z,23.03
2023-06-15T17:50:40.187Z,22.87
2023-06-15T17:52:11.908Z,23.02
2023-06-15T17:53:46.324Z,23.23
2023-06-15T17:55:17.995Z,23.23
2023-06-15T17:56:51.036Z,23.34
2023-06-15T17:58:24.712Z,23.35
2023-06-15T17:59:56.721Z,23.23
2023-06-15T18:01:28.413Z,23.27
2023-06-15T18:03:00.128Z,23.29
2023-06-15T18:04:31.982Z,23.25
2023-06-15T18:06:03.920Z,23.23
2023-06-15T18:07:35.614Z,23.19
2023-06-15T18:09:07.614Z,23.19
2023-06-15T18:10:39.434Z,23.21
2023-06-15T18:12:12.451Z,23.20
2023-06-15T18:13:46.903Z,23.14
2023-06-15T18:15:18.992Z,23.15
2023-06-15T18:16:51.014Z,23.06
2023-06-15T18:18:23.973Z,22.92
2023-06-15T18:19:55.709Z,22.87
2023-06-15T18:21:27.334Z,22.91
2023-06-15T18:23:01.290Z,22.93
2023-06-15T18:24:33.056Z,22.91
2023-06-15T18:26:06.666Z,22.96
2023-06-15T18:27:40.946Z,22.91
2023-06-15T18:29:16.947Z,22.72
2023-06-15T18:30:48.714Z,22.64
2023-06-15T18:32:20.519Z,22.58
2023-06-15T18:33:52.214Z,22.39
2023-06-15T18:35:24.258Z,22.39
2023-06-15T18:36:58.831Z,22.66
2023-06-15T18:38:32.448Z,22.73
2023-06-15T18:40:04.601Z,22.67
2023-06-15T18:41:38.775Z,22.66
2023-06-15T18:43:10.722Z,22.59
2023-06-15T18:44:43.895Z,22.51
2023-06-15T18:46:19.522Z,22.24
2023-06-15T18:47:51.348Z,21.76
2023-06-15T18:49:23.175Z,21.65
2023-06-15T18:50:54.841Z,21.72
2023-06-15T18:52:26.853Z,21.61
2023-06-15T18:53:59.148Z,21.65
2023-06-15T18:55:31.022Z,21.48
2023-06-15T18:57:02.709Z,21.34
2023-06-15T19:00:56.481Z,20.87
2023-06-15T19:02:28.281Z,20.78
2023-06-15T19:04:00.150Z,20.87
2023-06-15T19:05:31.901Z,21.11
2023-06-15T19:07:03.652Z,20.71
2023-06-15T19:08:35.468Z,20.74
2023-06-15T19:10:08.129Z,20.54
2023-06-15T19:11:39.893Z,20.58
2023-06-15T19:13:11.618Z,21.01
2023-06-15T19:14:43.244Z,21.03
2023-06-15T19:16:16.316Z,21.28
2023-06-15T19:17:48.085Z,20.99
2023-06-15T19:19:19.873Z,21.00
2023-06-15T19:20:51.675Z,20.59
2023-06-15T19:22:23.511Z,20.53
2023-06-15T19:23:55.275Z,20.66
2023-06-15T19:25:27.023Z,20.83
2023-06-15T19:26:59.439Z,20.41
2023-06-15T19:28:31.357Z,20.44
2023-06-15T19:30:03.197Z,20.27
2023-06-15T19:31:36.204Z,20.11
2023-06-15T19:33:10.140Z,20.03
2023-06-15T19:34:41.852Z,20.61
2023-06-15T19:36:13.512Z,20.75
2023-06-15T19:37:45.382Z,20.81
2023-06-15T19:39:20.722Z,20.81
2023-06-15T19:40:53.067Z,20.84
2023-06-15T19:42:26.445Z,20.96
2023-06-15T19:43:58.366Z,20.81
2023-06-15T19:45:30.050Z,20.42
2023-06-15T19:47:03.136Z,20.43
2023-06-15T19:48:34.870Z,20.87
2023-06-15T19:50:07.606Z,20.75
2023-06-15T19:51:41.778Z,20.91
2023-06-15T19:53:13.418Z,20.78
2023-06-15T19:54:45.080Z,20.76
2023-06-15T19:56:16.718Z,21.11
2023-06-15T19:57:48.362Z,21.08
2023-06-15T19:59:20.147Z,21.11